Etusivu
METAR-TAF:

METAR-TAF

Lentoasemat :

Natal, Rio Grande do Norte, Brasilia

Leveyspiiri: 05-46-05S, Pituuspiiri: 035-22-34W, korkeus merenpinnasta: 88 m

Tämänhetkinen sää

Tämä raportti tehtiin 22 minuuttia sitten, kello 15.00 UTC
Tuuli 12 kn etelästä, vaihdellen kaakon ja lounaan välillä
Lämpötila 28°C
Kosteus 66%
Ilmanpaine 1016 hPa
Näkyvyys 10 km tai enemmän
Hajonneita pilviä 2000 ft:n korkeudessa

METAR: SBSG 201500Z 19012KT 140V230 9999 BKN020 28/21 Q1016

Aika: 12:22 (15:22 UTC)

Sääennuste

Tämä raportti tehtiin 5 tuntia ja 22 minuuttia sitten, kello 10.00 UTC
Ennuste voimassa 20. päivästä klo 12 UTC - 21. päivään klo 12 UTC
Tuuli 10 kn etelästä
Näkyvyys: 9000 m
Hajonneita pilviä 2000 ft:n korkeudessa
Tulossa
20. päivästä klo 22 UTC - 20. päivään klo 23 UTC
Tuuli 5 kn etelästä/lounaasta
Hajanaisia pilviä 1600 ft:n korkeudessa

TAF: SBSG 201000Z 2012/2112 18010KT 9000 BKN020 TX29/2015Z TN22/2107Z BECMG 2022/2023 20005KT SCT016 RMK PCN

Säähavainnot ja -ennusteet yli 4000 lentoasemalta (METAR- ja TAF-raportit).

Käytössä olevat sääasemat on merkitty karttaan keltaisilla ja punaisilla pisteillä.

Aseta hiiri pisteen päälle nähdäksesi sääaseman nimen.

Klikkaa sitten nähdäksesi säähavainnot ja -ennusteet.

Kartan vaihtaminen: klikkaa mustalla rastilla varustettuja vihreitä pisteitä, niin voit zoomata sisään; viivalla varustettua vihreää pistettä, niin voit zoomata ulos tai vihreitä nuolia, niin pääset viereisille kartoille.


METAR-TAF: